Time;durP1;ratioP1;P1;durP2;ratioP2;P2;SDS_P1;SDS_P2;PMS_P1;PMS_P2;Temp;Humidity;BMP_temperature;BMP_pressure;BME280_temperature;BME280_humidity;BME280_pressure;Samples;Min_cycle;Max_cycle;Signal;HPM_P1;HPM_P2
2022/08/14 12:39:35;;;;;;;;;;;;;;;25.27;52.85;96294.28;4239583;27;10357;-82
2022/08/14 12:41:51;;;;;;;;;;;;;;;25.59;52.72;96293.38;4227263;27;5762;-77
2022/08/14 12:44:01;;;;;;;;;;;;;;;25.85;52.27;96292.91;4240618;27;5768;-62
2022/08/14 12:46:04;;;;;;;;;;;;;;;25.99;52.02;96289.06;4231891;27;5747;-76
2022/08/14 12:48:13;;;;;;;;;;;;;;;26.09;51.39;96288.06;4241283;27;5656;-70
2022/08/14 12:50:39;;;;;;;;;;;;;;;26.17;51.46;96284.63;4222795;27;5749;-74
2022/08/14 12:52:44;;;;;;;;;;;;;;;26.22;51.17;96272.88;4226650;28;6510;-72
2022/08/14 12:55:10;;;;;;;;;;;;;;;26.29;51.32;96267.84;4230796;28;5699;-71
2022/08/14 12:57:14;;;;;;;;;;;;;;;26.32;51.09;96268.03;4233088;27;5679;-71
2022/08/14 12:59:29;;;;;;;;;;;;;;;26.36;51.03;96270.91;4230291;28;5722;-73
2022/08/14 13:01:35;;;;;;;;;;;;;;;26.36;50.91;96260.06;4231732;28;6364;-77
2022/08/14 13:04:07;;;;;;;;;;;;;;;26.36;50.89;96249.22;4230695;28;5692;-66
2022/08/14 13:06:13;;;;;;;;;;;;;;;26.41;50.78;96251.88;4226867;28;5671;-68
2022/08/14 13:08:17;;;;;;;;;;;;;;;26.50;50.86;96235.66;4213472;28;5778;-68
2022/08/14 13:10:37;;;;;;;;;;;;;;;26.57;50.64;96233.31;4227079;28;5675;-68
2022/08/14 13:12:56;;;;;;;;;;;;;;;26.60;50.70;96221.84;4234147;27;5690;-68
2022/08/14 13:15:18;;;;;;;;;;;;;;;26.60;50.17;96216.41;4247245;27;5661;-72
2022/08/14 13:17:24;;;;;;;;;;;;;;;26.61;50.15;96213.41;4246283;27;5754;-68
2022/08/14 13:19:30;;;;;;;;;;;;;;;26.64;50.00;96212.00;4247499;27;5658;-68
2022/08/14 13:21:33;;;;;;;;;;;;;;;26.64;50.17;96215.50;4248350;27;5658;-67
2022/08/14 13:23:56;;;;;;;;;;;;;;;26.63;49.98;96211.22;4239706;27;5746;-69
2022/08/14 13:26:01;;;;;;;;;;;;;;;26.62;49.75;96217.75;4220248;28;5686;-67
2022/08/14 13:28:04;;;;;;;;;;;;;;;26.61;49.77;96218.81;4227683;28;6440;-64
2022/08/14 13:30:13;;;;;;;;;;;;;;;26.61;50.09;96218.03;4226753;28;8419;-72
2022/08/14 13:32:27;;;;;;;;;;;;;;;26.58;50.11;96208.59;4229977;28;5741;-67
2022/08/14 13:34:30;;;;;;;;;;;;;;;26.59;49.92;96212.91;4224500;28;5683;-68
2022/08/14 13:36:35;;;;;;;;;;;;;;;26.58;50.12;96214.03;4228107;28;5707;-71
2022/08/14 13:38:59;;;;;;;;;;;;;;;26.60;49.89;96206.38;4223519;28;5740;-70
2022/08/14 13:41:04;;;;;;;;;;;;;;;26.59;49.82;96212.91;4219972;28;5691;-85
2022/08/14 13:43:08;;;;;;;;;;;;;;;26.56;49.72;96205.41;4212068;28;5699;-71
2022/08/14 13:45:13;;;;;;;;;;;;;;;26.56;49.99;96208.13;4218662;28;5795;-69
2022/08/14 13:47:19;;;;;;;;;;;;;;;26.56;49.57;96210.84;4218033;28;5914;-72
2022/08/14 13:49:23;;;;;;;;;;;;;;;26.57;49.75;96207.00;4219663;28;5691;-79
2022/08/14 13:51:31;;;;;;;;;;;;;;;26.57;49.90;96211.63;4218390;28;5667;-69
2022/08/14 13:53:42;;;;;;;;;;;;;;;26.60;49.78;96214.50;4208549;28;5720;-72
2022/08/14 13:56:07;;;;;;;;;;;;;;;26.61;49.67;96218.81;4218452;28;5884;-73
2022/08/14 13:58:19;;;;;;;;;;;;;;;26.61;49.69;96213.41;4216345;28;5749;-72
2022/08/14 14:00:38;;;;;;;;;;;;;;;26.64;49.89;96212.81;4217646;28;5675;-65
2022/08/14 14:02:58;;;;;;;;;;;;;;;26.72;49.88;96215.84;4218334;28;5675;-74
2022/08/14 14:05:04;;;;;;;;;;;;;;;26.74;49.63;96210.94;4218870;28;5679;-70
2022/08/14 14:07:10;;;;;;;;;;;;;;;26.76;49.58;96209.53;4216370;28;5802;-69
2022/08/14 14:09:15;;;;;;;;;;;;;;;26.76;49.66;96220.38;4216429;28;5284;-74
2022/08/14 14:11:23;;;;;;;;;;;;;;;26.76;49.43;96217.66;4218623;28;5691;-70
2022/08/14 14:13:31;;;;;;;;;;;;;;;26.79;49.56;96213.50;4217308;28;5856;-69
2022/08/14 14:15:36;;;;;;;;;;;;;;;26.82;49.37;96213.69;4229251;28;5662;-72
2022/08/14 14:17:59;;;;;;;;;;;;;;;26.86;49.51;96203.03;4235742;27;5657;-68
2022/08/14 14:20:05;;;;;;;;;;;;;;;26.86;49.74;96201.13;4235086;27;5647;-72
2022/08/14 14:22:08;;;;;;;;;;;;;;;26.87;49.46;96201.91;4217708;28;5734;-73
2022/08/14 14:24:12;;;;;;;;;;;;;;;26.92;49.45;96218.03;4218220;28;5667;-71
2022/08/14 14:26:19;;;;;;;;;;;;;;;26.93;49.63;96216.94;4202197;28;5768;-72
2022/08/14 14:28:31;;;;;;;;;;;;;;;26.93;49.48;96214.22;4208283;28;5667;-65
2022/08/14 14:30:35;;;;;;;;;;;;;;;26.93;49.44;96208.78;4218291;28;5890;-69
2022/08/14 14:32:58;;;;;;;;;;;;;;;26.95;49.38;96209.28;4218766;28;5691;-68
2022/08/14 14:35:16;;;;;;;;;;;;;;;26.94;49.37;96197.63;4215300;28;5850;-68
2022/08/14 14:37:19;;;;;;;;;;;;;;;26.94;49.50;96199.53;4218411;28;5848;-70
2022/08/14 14:39:26;;;;;;;;;;;;;;;26.94;49.36;96199.53;4215904;28;5669;-71
2022/08/14 14:41:33;;;;;;;;;;;;;;;26.93;49.33;96197.94;4209850;28;5671;-71
2022/08/14 14:43:49;;;;;;;;;;;;;;;26.91;49.57;96189.31;4218027;28;6469;-71
2022/08/14 14:45:55;;;;;;;;;;;;;;;26.89;49.50;96196.97;4218604;28;8426;-74
2022/08/14 14:48:00;;;;;;;;;;;;;;;26.91;49.35;96202.88;4212563;28;5691;-72
2022/08/14 14:50:07;;;;;;;;;;;;;;;26.89;49.58;96196.97;4215954;28;5769;-72
2022/08/14 14:52:12;;;;;;;;;;;;;;;26.89;49.44;96196.97;4214932;28;5790;-70
2022/08/14 14:54:29;;;;;;;;;;;;;;;26.89;49.39;96203.19;4213620;28;5753;-69
2022/08/14 14:56:40;;;;;;;;;;;;;;;26.87;49.26;96201.91;4217673;28;5834;-73
2022/08/14 14:58:56;;;;;;;;;;;;;;;26.85;49.36;96185.97;4216148;28;5667;-72
2022/08/14 15:01:03;;;;;;;;;;;;;;;26.86;49.60;96192.19;4212627;28;5675;-73
2022/08/14 15:03:10;;;;;;;;;;;;;;;26.87;49.16;96196.50;4208877;28;7250;-72
2022/08/14 15:05:15;;;;;;;;;;;;;;;26.86;49.29;96197.59;4216804;28;5659;-66
2022/08/14 15:07:20;;;;;;;;;;;;;;;26.86;49.25;96197.59;4215490;28;5706;-70
2022/08/14 15:09:23;;;;;;;;;;;;;;;26.87;49.31;96191.06;4215462;28;5675;-67
2022/08/14 15:11:27;;;;;;;;;;;;;;;26.87;49.17;96194.59;4216622;28;5686;-71
2022/08/14 15:13:36;;;;;;;;;;;;;;;26.86;49.21;96203.03;4213530;28;5792;-71
2022/08/14 15:15:46;;;;;;;;;;;;;;;26.87;49.52;96197.28;4216795;28;5675;-70
2022/08/14 15:17:55;;;;;;;;;;;;;;;26.87;49.42;96199.22;4217047;28;5682;-68
2022/08/14 15:19:59;;;;;;;;;;;;;;;26.80;49.40;96207.78;4203399;28;5822;-70
2022/08/14 15:22:02;;;;;;;;;;;;;;;26.75;49.45;96201.69;4216658;28;5672;-71
2022/08/14 15:24:06;;;;;;;;;;;;;;;26.74;49.73;96200.09;4214637;28;6409;-71
2022/08/14 15:26:12;;;;;;;;;;;;;;;26.72;49.54;96199.59;4209888;28;5889;-70
2022/08/14 15:28:35;;;;;;;;;;;;;;;26.67;49.82;96198.63;4214352;28;6225;-68
2022/08/14 15:30:41;;;;;;;;;;;;;;;26.63;49.67;96200.34;4214656;28;5818;-72
2022/08/14 15:32:46;;;;;;;;;;;;;;;26.54;49.71;96202.22;4211818;28;5744;-69
2022/08/14 15:34:49;;;;;;;;;;;;;;;26.43;50.02;96200.88;4215076;28;5679;-67
2022/08/14 15:36:54;;;;;;;;;;;;;;;26.46;50.04;96204.84;4218677;28;5679;-70
2022/08/14 15:38:58;;;;;;;;;;;;;;;26.53;49.74;96192.47;4209068;28;5667;-67
2022/08/14 15:41:03;;;;;;;;;;;;;;;26.52;49.61;96204.44;4217111;28;5679;-70
2022/08/14 15:43:11;;;;;;;;;;;;;;;26.55;49.83;96209.22;4212550;28;5664;-70
2022/08/14 15:45:15;;;;;;;;;;;;;;;26.61;49.81;96207.97;4214731;28;5834;-71
2022/08/14 15:47:20;;;;;;;;;;;;;;;26.65;49.65;96211.69;4208740;28;5804;-73
2022/08/14 15:49:31;;;;;;;;;;;;;;;26.60;49.81;96200.97;4220987;28;5849;-77
2022/08/14 15:51:36;;;;;;;;;;;;;;;26.53;49.50;96200.63;4231702;28;5121;-79
2022/08/14 15:53:45;;;;;;;;;;;;;;;26.53;49.59;96195.19;4218561;28;5717;-78
2022/08/14 15:55:53;;;;;;;;;;;;;;;26.51;49.89;96202.84;4215076;28;5697;-75
2022/08/14 15:57:57;;;;;;;;;;;;;;;26.42;49.73;96204.69;4223638;28;5933;-69
2022/08/14 16:02:45;;;;;;;;;;;;;;;26.44;49.57;96199.75;4225192;27;5687;-75
2022/08/14 16:04:50;;;;;;;;;;;;;;;26.41;50.01;96203.09;4220758;28;5770;-68
2022/08/14 16:06:54;;;;;;;;;;;;;;;26.41;49.55;96189.53;4203149;28;5709;-68
2022/08/14 16:08:58;;;;;;;;;;;;;;;26.43;49.51;96190.03;4206012;28;5693;-68
2022/08/14 16:11:13;;;;;;;;;;;;;;;26.48;49.43;96197.22;4210002;28;5898;-65
2022/08/14 16:13:17;;;;;;;;;;;;;;;26.49;49.47;96187.97;4202374;28;5820;-66
2022/08/14 16:15:41;;;;;;;;;;;;;;;26.50;49.51;96178.72;4203140;28;5732;-65
2022/08/14 16:17:56;;;;;;;;;;;;;;;26.52;49.65;96176.53;4199637;28;5256;-65
2022/08/14 16:20:02;;;;;;;;;;;;;;;26.54;49.43;96172.41;4201373;28;5763;-64
2022/08/14 16:22:08;;;;;;;;;;;;;;;26.54;49.32;96175.09;4202582;28;5948;-67
2022/08/14 16:24:33;;;;;;;;;;;;;;;26.56;49.15;96172.88;4209878;28;5377;-66
2022/08/14 16:26:38;;;;;;;;;;;;;;;26.55;49.20;96165.88;4213503;28;5688;-67
2022/08/14 16:28:45;;;;;;;;;;;;;;;26.48;49.37;96162.78;4210923;28;5888;-67
2022/08/14 16:30:53;;;;;;;;;;;;;;;26.49;49.27;96155.44;4211275;28;6325;-67
2022/08/14 16:32:57;;;;;;;;;;;;;;;26.54;49.43;96161.56;4201091;28;5689;-67
2022/08/14 16:35:08;;;;;;;;;;;;;;;26.52;49.19;96162.97;4207557;28;5854;-65
2022/08/14 16:37:14;;;;;;;;;;;;;;;26.53;48.82;96151.03;4209053;28;5874;-65
2022/08/14 16:39:17;;;;;;;;;;;;;;;26.43;49.00;96146.66;4210948;28;5667;-67
2022/08/14 16:41:25;;;;;;;;;;;;;;;26.46;48.98;96146.03;4214607;28;5782;-66
2022/08/14 16:43:28;;;;;;;;;;;;;;;26.47;49.08;96136.78;4212545;28;5758;-65
2022/08/14 16:45:32;;;;;;;;;;;;;;;26.48;48.92;96138.38;4211926;28;5815;-67
2022/08/14 16:47:45;;;;;;;;;;;;;;;26.51;48.65;96134.28;4210494;28;5687;-68
2022/08/14 16:49:51;;;;;;;;;;;;;;;26.53;48.52;96135.56;4214814;28;5811;-66
2022/08/14 16:52:12;;;;;;;;;;;;;;;26.58;48.46;96154.38;4211424;28;5870;-65
2022/08/14 16:54:35;;;;;;;;;;;;;;;26.59;48.61;96142.44;4212998;28;5686;-64
2022/08/14 16:56:47;;;;;;;;;;;;;;;26.62;48.58;96143.75;4213787;28;5675;-67
2022/08/14 16:59:04;;;;;;;;;;;;;;;26.53;48.59;96143.69;4208911;28;5755;-65
2022/08/14 17:01:18;;;;;;;;;;;;;;;26.56;48.51;96162.03;4201683;28;5688;-66
2022/08/14 17:03:29;;;;;;;;;;;;;;;26.55;48.25;96157.72;4214368;28;5762;-67
2022/08/14 17:05:43;;;;;;;;;;;;;;;26.53;48.68;96154.53;4214018;28;5675;-68
2022/08/14 17:08:11;;;;;;;;;;;;;;;26.50;48.54;96159.75;4211537;28;5672;-66
2022/08/14 17:10:36;;;;;;;;;;;;;;;26.49;48.67;96153.53;4214953;28;5788;-65
2022/08/14 17:12:39;;;;;;;;;;;;;;;26.47;48.38;96147.63;4213915;28;5679;-67
2022/08/14 17:15:02;;;;;;;;;;;;;;;26.46;48.38;96146.03;4211818;28;5093;-69
2022/08/14 17:17:11;;;;;;;;;;;;;;;26.46;48.65;96143.31;4212903;28;5660;-68
2022/08/14 17:19:17;;;;;;;;;;;;;;;26.43;48.49;96146.66;4218775;28;5706;-67
2022/08/14 17:21:22;;;;;;;;;;;;;;;26.39;48.64;96135.66;4212375;28;5802;-67
2022/08/14 17:23:35;;;;;;;;;;;;;;;26.34;48.43;96134.94;4214248;28;5683;-67
2022/08/14 17:25:38;;;;;;;;;;;;;;;26.31;48.68;96132.84;4205109;28;5841;-69
2022/08/14 17:28:11;;;;;;;;;;;;;;;26.32;48.52;96129.84;4212913;28;5848;-72
2022/08/14 17:30:48;;;;;;;;;;;;;;;26.36;48.38;96127.28;4208358;28;5773;-70
2022/08/14 17:32:51;;;;;;;;;;;;;;;26.35;48.79;96128.41;4213320;28;5884;-69
2022/08/14 17:34:59;;;;;;;;;;;;;;;26.38;48.48;96138.66;4211019;28;5190;-75
2022/08/14 17:37:27;;;;;;;;;;;;;;;26.41;48.68;96148.88;4213692;28;5802;-74
2022/08/14 17:39:37;;;;;;;;;;;;;;;26.43;48.59;96141.25;4213754;28;5671;-68
2022/08/14 17:41:47;;;;;;;;;;;;;;;26.40;48.37;96136.44;4210351;28;5694;-73
2022/08/14 17:44:19;;;;;;;;;;;;;;;26.39;48.36;96135.66;4215521;28;5799;-73
2022/08/14 17:46:39;;;;;;;;;;;;;;;26.40;48.51;96142.66;4209020;28;5842;-73
2022/08/14 17:48:45;;;;;;;;;;;;;;;26.43;48.35;96146.66;4215167;28;5678;-67
2022/08/14 17:51:10;;;;;;;;;;;;;;;26.45;48.16;96138.22;4217986;28;5778;-72
2022/08/14 17:53:16;;;;;;;;;;;;;;;26.47;48.32;96136.00;4215343;28;6699;-70
2022/08/14 17:55:26;;;;;;;;;;;;;;;26.49;48.23;96147.31;4216111;28;5655;-67
2022/08/14 17:57:53;;;;;;;;;;;;;;;26.50;48.24;96146.22;4207589;28;5703;-64
2022/08/14 17:59:57;;;;;;;;;;;;;;;26.49;48.12;96148.13;4217489;28;6524;-66
2022/08/14 18:02:02;;;;;;;;;;;;;;;26.46;48.53;96148.75;4214895;28;5670;-67
2022/08/14 18:04:06;;;;;;;;;;;;;;;26.43;48.64;96146.66;4199488;28;5711;-72
2022/08/14 18:06:29;;;;;;;;;;;;;;;26.44;48.77;96142.84;4208962;28;5990;-69
2022/08/14 18:08:53;;;;;;;;;;;;;;;26.45;48.49;96139.03;4216386;28;5680;-65
2022/08/14 18:11:01;;;;;;;;;;;;;;;26.48;48.69;96148.44;4215707;28;5809;-64
2022/08/14 18:13:06;;;;;;;;;;;;;;;26.48;48.55;96135.69;4215875;28;5750;-69
2022/08/14 18:15:15;;;;;;;;;;;;;;;26.51;48.45;96145.13;4205731;28;5683;-68
2022/08/14 18:17:20;;;;;;;;;;;;;;;26.51;48.30;96137.78;4209327;28;5913;-67
2022/08/14 18:19:27;;;;;;;;;;;;;;;26.52;48.38;96144.00;4215098;28;5679;-73
2022/08/14 18:21:30;;;;;;;;;;;;;;;26.53;48.50;96148.31;4215808;28;5802;-67
2022/08/14 18:23:53;;;;;;;;;;;;;;;26.54;48.38;96149.91;4216192;28;5795;-72
2022/08/14 18:25:58;;;;;;;;;;;;;;;26.54;48.43;96158.84;4217244;28;5688;-68
2022/08/14 18:28:09;;;;;;;;;;;;;;;26.54;48.64;96164.25;4215871;28;5109;-67
2022/08/14 18:30:21;;;;;;;;;;;;;;;26.55;48.68;96174.00;4213983;28;5679;-70
2022/08/14 18:32:44;;;;;;;;;;;;;;;26.56;48.64;96175.59;4212625;28;5659;-69
2022/08/14 18:34:59;;;;;;;;;;;;;;;26.56;48.91;96175.59;4212472;28;5668;-71
2022/08/14 18:37:04;;;;;;;;;;;;;;;26.56;49.04;96186.44;4213633;28;5659;-72
2022/08/14 18:39:25;;;;;;;;;;;;;;;26.54;48.93;96194.09;4215802;28;5663;-71
2022/08/14 18:41:30;;;;;;;;;;;;;;;26.52;49.21;96196.31;4208481;28;6584;-70
2022/08/14 18:43:43;;;;;;;;;;;;;;;26.51;49.47;96205.56;4213818;28;5683;-70
2022/08/14 18:46:01;;;;;;;;;;;;;;;26.48;49.74;96208.84;4216296;28;5690;-72
2022/08/14 18:48:30;;;;;;;;;;;;;;;26.47;49.87;96212.69;4201653;28;5709;-72
2022/08/14 18:50:55;;;;;;;;;;;;;;;26.46;49.80;96221.91;4209569;28;5750;-69
2022/08/14 18:53:06;;;;;;;;;;;;;;;26.48;49.78;96219.69;4216420;28;5746;-73
2022/08/14 18:55:48;;;;;;;;;;;;;;;26.50;50.21;96228.31;4211981;28;5861;-71
2022/08/14 18:58:26;;;;;;;;;;;;;;;26.47;50.43;96250.63;4209119;28;5837;-67
2022/08/14 19:00:54;;;;;;;;;;;;;;;26.47;50.45;96250.63;4148636;28;5759;-69
2022/08/14 19:03:02;;;;;;;;;;;;;;;26.50;50.09;96244.56;4144193;28;5846;-66
2022/08/14 19:05:06;;;;;;;;;;;;;;;26.51;50.23;96248.91;4149153;28;6523;-67
2022/08/14 19:07:15;;;;;;;;;;;;;;;26.49;50.28;96256.53;4149727;28;5751;-68
2022/08/14 19:09:54;;;;;;;;;;;;;;;26.47;50.23;96255.25;4147582;28;5877;-67
2022/08/14 19:11:59;;;;;;;;;;;;;;;26.43;50.39;96263.19;4149439;28;6125;-67
2022/08/14 19:14:06;;;;;;;;;;;;;;;26.39;50.68;96262.22;4148341;28;5838;-68
2022/08/14 19:16:12;;;;;;;;;;;;;;;26.35;50.87;96272.81;4148956;28;5830;-67
2022/08/14 19:18:25;;;;;;;;;;;;;;;26.30;51.11;96269.44;4131379;28;5771;-67
2022/08/14 19:20:45;;;;;;;;;;;;;;;26.30;51.13;96272.16;4145578;28;5925;-67
2022/08/14 19:22:52;;;;;;;;;;;;;;;26.27;50.79;96278.16;4147609;28;5834;-67
2022/08/14 19:24:56;;;;;;;;;;;;;;;26.27;50.94;96272.75;4149309;28;5846;-71
2022/08/14 19:27:18;;;;;;;;;;;;;;;26.23;51.09;96274.47;4150121;28;5850;-63
2022/08/14 19:29:30;;;;;;;;;;;;;;;26.19;51.38;96277.00;4148855;28;5750;-67
2022/08/14 19:31:41;;;;;;;;;;;;;;;26.15;51.22;96273.28;4149775;28;5766;-67
2022/08/14 19:34:00;;;;;;;;;;;;;;;26.14;51.23;96271.69;4149057;28;5950;-67
2022/08/14 19:36:10;;;;;;;;;;;;;;;26.13;51.44;96281.72;4216253;28;5769;-67
2022/08/14 19:38:54;;;;;;;;;;;;;;;26.13;51.87;96289.84;4217047;28;5675;-67
2022/08/14 19:41:00;;;;;;;;;;;;;;;26.06;51.83;96285.97;4210469;28;5775;-67
2022/08/14 19:43:04;;;;;;;;;;;;;;;26.07;52.13;96284.84;4206312;28;5753;-67
2022/08/14 19:45:14;;;;;;;;;;;;;;;26.05;52.22;96293.28;4208677;28;5763;-67
2022/08/14 19:47:19;;;;;;;;;;;;;;;26.03;52.14;96294.69;4215872;28;5859;-66
2022/08/14 19:49:32;;;;;;;;;;;;;;;26.01;52.46;96292.28;4215942;28;6439;-66
2022/08/14 19:51:54;;;;;;;;;;;;;;;26.01;52.64;96286.84;4216518;28;5693;-68
2022/08/14 19:54:05;;;;;;;;;;;;;;;26.00;52.78;96287.16;4215235;28;5672;-67
2022/08/14 19:56:15;;;;;;;;;;;;;;;26.01;53.01;96286.84;4216598;28;5758;-65
2022/08/14 19:58:41;;;;;;;;;;;;;;;25.97;53.11;96294.00;4212943;28;5675;-66
2022/08/14 20:00:58;;;;;;;;;;;;;;;25.95;52.88;96298.13;4216804;28;5085;-66
2022/08/14 20:03:04;;;;;;;;;;;;;;;25.95;53.06;96304.34;4216339;28;5819;-68
2022/08/14 20:05:12;;;;;;;;;;;;;;;25.92;52.93;96296.78;4217032;28;5687;-65
2022/08/14 20:07:27;;;;;;;;;;;;;;;25.90;53.23;96288.19;4216619;28;5695;-67
2022/08/14 20:09:50;;;;;;;;;;;;;;;25.88;53.38;96287.69;4200804;28;5806;-66
2022/08/14 20:12:20;;;;;;;;;;;;;;;25.86;53.73;96287.19;4215798;28;5678;-66
2022/08/14 20:14:37;;;;;;;;;;;;;;;25.83;53.44;96283.19;4217056;28;5675;-65
2022/08/14 20:16:43;;;;;;;;;;;;;;;25.83;53.38;96287.81;4216837;28;5663;-67
2022/08/14 20:18:47;;;;;;;;;;;;;;;25.81;53.72;96281.88;4217112;28;5684;-63
2022/08/14 20:20:53;;;;;;;;;;;;;;;25.81;53.75;96279.16;4217340;28;5761;-67
2022/08/14 20:22:56;;;;;;;;;;;;;;;25.79;54.00;96273.25;4216158;28;5663;-68
2022/08/14 20:25:14;;;;;;;;;;;;;;;25.76;54.35;96271.97;4216948;28;5679;-68
2022/08/14 20:27:26;;;;;;;;;;;;;;;25.75;54.13;96291.22;4215920;28;5659;-67
2022/08/14 20:29:36;;;;;;;;;;;;;;;25.74;54.51;96286.91;4200427;28;5669;-64
2022/08/14 20:31:42;;;;;;;;;;;;;;;25.73;54.39;96285.31;4216955;28;5679;-68
2022/08/14 20:34:11;;;;;;;;;;;;;;;25.70;54.99;96288.59;4215943;28;5874;-66
2022/08/14 20:36:38;;;;;;;;;;;;;;;25.67;54.83;96291.88;4212436;28;5862;-67
2022/08/14 20:38:42;;;;;;;;;;;;;;;25.62;55.00;96295.50;4216444;28;5675;-65
2022/08/14 20:40:56;;;;;;;;;;;;;;;25.60;54.91;96288.81;4209337;28;5713;-65
2022/08/14 20:45:27;;;;;;;;;;;;;;;25.57;54.83;96287.47;4216611;28;5683;-64
2022/08/14 20:47:31;;;;;;;;;;;;;;;25.53;54.84;96284.56;4215211;28;5675;-66
2022/08/14 20:50:10;;;;;;;;;;;;;;;25.49;55.08;96286.28;4218561;28;6497;-68
2022/08/14 20:52:29;;;;;;;;;;;;;;;25.49;55.17;96290.91;4218817;28;5671;-68
2022/08/14 20:54:33;;;;;;;;;;;;;;;25.46;54.97;96286.06;4205295;28;5933;-68
2022/08/14 20:56:51;;;;;;;;;;;;;;;25.44;55.16;96283.66;4203385;28;5812;-68
2022/08/14 20:58:54;;;;;;;;;;;;;;;25.40;55.23;96273.75;4211808;28;6547;-67
2022/08/14 21:01:01;;;;;;;;;;;;;;;25.37;55.25;96280.56;4219965;28;5746;-68
2022/08/14 21:03:26;;;;;;;;;;;;;;;25.34;55.12;96286.56;4218583;28;5754;-67
2022/08/14 21:05:30;;;;;;;;;;;;;;;25.33;55.10;96289.56;4217798;28;5818;-66
